sensor_id;sensor_type;location;lat;lon;timestamp;P1;durP1;ratioP1;P2;durP2;ratioP2
24617;SDS011;12762;51.730;5.356;2023-07-29T00:02:00;10.63;;;6.70;;
24617;SDS011;12762;51.730;5.356;2023-07-29T00:04:27;11.10;;;5.13;;
24617;SDS011;12762;51.730;5.356;2023-07-29T00:06:53;11.17;;;6.80;;
24617;SDS011;12762;51.730;5.356;2023-07-29T00:09:23;8.90;;;6.43;;
24617;SDS011;12762;51.730;5.356;2023-07-29T00:11:50;11.93;;;6.83;;
24617;SDS011;12762;51.730;5.356;2023-07-29T00:14:17;11.03;;;6.93;;
24617;SDS011;12762;51.730;5.356;2023-07-29T00:16:43;11.37;;;7.27;;
24617;SDS011;12762;51.730;5.356;2023-07-29T00:19:10;11.27;;;7.47;;
24617;SDS011;12762;51.730;5.356;2023-07-29T00:21:37;10.20;;;5.77;;
24617;SDS011;12762;51.730;5.356;2023-07-29T00:24:04;9.60;;;7.10;;
24617;SDS011;12762;51.730;5.356;2023-07-29T00:26:31;12.63;;;6.97;;
24617;SDS011;12762;51.730;5.356;2023-07-29T00:28:58;12.37;;;7.43;;
24617;SDS011;12762;51.730;5.356;2023-07-29T00:31:25;11.50;;;7.27;;
24617;SDS011;12762;51.730;5.356;2023-07-29T00:33:52;10.47;;;7.10;;
24617;SDS011;12762;51.730;5.356;2023-07-29T00:36:19;12.23;;;7.60;;
24617;SDS011;12762;51.730;5.356;2023-07-29T00:38:46;10.10;;;6.53;;
24617;SDS011;12762;51.730;5.356;2023-07-29T00:41:12;11.20;;;7.63;;
24617;SDS011;12762;51.730;5.356;2023-07-29T00:43:40;13.67;;;7.10;;
24617;SDS011;12762;51.730;5.356;2023-07-29T00:46:08;10.63;;;7.03;;
24617;SDS011;12762;51.730;5.356;2023-07-29T00:48:39;11.80;;;7.37;;
24617;SDS011;12762;51.730;5.356;2023-07-29T00:51:06;15.03;;;7.83;;
24617;SDS011;12762;51.730;5.356;2023-07-29T00:53:33;12.67;;;6.93;;
24617;SDS011;12762;51.730;5.356;2023-07-29T00:55:59;11.00;;;6.93;;
24617;SDS011;12762;51.730;5.356;2023-07-29T00:58:29;11.53;;;6.60;;
24617;SDS011;12762;51.730;5.356;2023-07-29T01:00:57;9.70;;;6.50;;
24617;SDS011;12762;51.730;5.356;2023-07-29T01:03:23;10.70;;;6.90;;
24617;SDS011;12762;51.730;5.356;2023-07-29T01:05:57;9.30;;;5.60;;
24617;SDS011;12762;51.730;5.356;2023-07-29T01:11:30;9.57;;;5.80;;
24617;SDS011;12762;51.730;5.356;2023-07-29T01:17:13;9.67;;;5.80;;
24617;SDS011;12762;51.730;5.356;2023-07-29T01:20:02;11.63;;;5.77;;
24617;SDS011;12762;51.730;5.356;2023-07-29T01:22:32;10.90;;;6.57;;
24617;SDS011;12762;51.730;5.356;2023-07-29T01:25:03;8.07;;;5.43;;
24617;SDS011;12762;51.730;5.356;2023-07-29T01:27:33;9.50;;;5.30;;
24617;SDS011;12762;51.730;5.356;2023-07-29T01:30:00;9.13;;;5.00;;
24617;SDS011;12762;51.730;5.356;2023-07-29T01:32:43;9.10;;;4.93;;
24617;SDS011;12762;51.730;5.356;2023-07-29T01:35:30;7.53;;;4.63;;
24617;SDS011;12762;51.730;5.356;2023-07-29T01:38:19;9.07;;;4.50;;
24617;SDS011;12762;51.730;5.356;2023-07-29T01:40:50;7.77;;;4.27;;
24617;SDS011;12762;51.730;5.356;2023-07-29T01:43:19;6.80;;;3.90;;
24617;SDS011;12762;51.730;5.356;2023-07-29T01:45:49;7.33;;;3.47;;
24617;SDS011;12762;51.730;5.356;2023-07-29T01:48:16;7.63;;;3.47;;
24617;SDS011;12762;51.730;5.356;2023-07-29T01:50:44;6.30;;;3.53;;
24617;SDS011;12762;51.730;5.356;2023-07-29T01:53:14;8.03;;;3.70;;
24617;SDS011;12762;51.730;5.356;2023-07-29T01:55:43;9.07;;;3.60;;
24617;SDS011;12762;51.730;5.356;2023-07-29T01:58:13;6.43;;;3.20;;
24617;SDS011;12762;51.730;5.356;2023-07-29T02:00:40;4.93;;;3.17;;
24617;SDS011;12762;51.730;5.356;2023-07-29T02:03:07;6.97;;;3.30;;
24617;SDS011;12762;51.730;5.356;2023-07-29T02:05:34;6.00;;;2.83;;
24617;SDS011;12762;51.730;5.356;2023-07-29T02:08:01;4.33;;;2.67;;
24617;SDS011;12762;51.730;5.356;2023-07-29T02:10:28;4.83;;;2.80;;
24617;SDS011;12762;51.730;5.356;2023-07-29T02:12:55;5.13;;;2.30;;
24617;SDS011;12762;51.730;5.356;2023-07-29T02:15:21;4.93;;;2.53;;
24617;SDS011;12762;51.730;5.356;2023-07-29T02:17:49;5.83;;;2.50;;
24617;SDS011;12762;51.730;5.356;2023-07-29T02:20:16;7.60;;;2.00;;
24617;SDS011;12762;51.730;5.356;2023-07-29T02:22:43;5.43;;;2.27;;
24617;SDS011;12762;51.730;5.356;2023-07-29T02:25:10;5.53;;;2.20;;
24617;SDS011;12762;51.730;5.356;2023-07-29T02:27:37;4.00;;;2.20;;
24617;SDS011;12762;51.730;5.356;2023-07-29T02:30:03;4.03;;;1.97;;
24617;SDS011;12762;51.730;5.356;2023-07-29T02:32:31;4.87;;;2.13;;
24617;SDS011;12762;51.730;5.356;2023-07-29T02:34:58;4.13;;;2.10;;
24617;SDS011;12762;51.730;5.356;2023-07-29T02:37:24;4.23;;;2.37;;
24617;SDS011;12762;51.730;5.356;2023-07-29T02:39:51;3.20;;;1.80;;
24617;SDS011;12762;51.730;5.356;2023-07-29T02:42:21;3.90;;;2.07;;
24617;SDS011;12762;51.730;5.356;2023-07-29T02:44:47;3.23;;;2.00;;
24617;SDS011;12762;51.730;5.356;2023-07-29T02:47:14;3.03;;;1.87;;
24617;SDS011;12762;51.730;5.356;2023-07-29T02:49:41;5.90;;;1.90;;
24617;SDS011;12762;51.730;5.356;2023-07-29T02:52:08;5.20;;;2.10;;
24617;SDS011;12762;51.730;5.356;2023-07-29T02:54:35;3.70;;;1.80;;
24617;SDS011;12762;51.730;5.356;2023-07-29T02:57:02;5.90;;;2.17;;
24617;SDS011;12762;51.730;5.356;2023-07-29T02:59:28;4.97;;;1.60;;
24617;SDS011;12762;51.730;5.356;2023-07-29T03:01:56;3.80;;;2.13;;
24617;SDS011;12762;51.730;5.356;2023-07-29T03:04:23;2.90;;;1.90;;
24617;SDS011;12762;51.730;5.356;2023-07-29T03:06:50;3.40;;;2.00;;
24617;SDS011;12762;51.730;5.356;2023-07-29T03:09:16;4.47;;;1.47;;
24617;SDS011;12762;51.730;5.356;2023-07-29T03:11:43;3.40;;;1.90;;
24617;SDS011;12762;51.730;5.356;2023-07-29T03:14:10;2.97;;;1.80;;
24617;SDS011;12762;51.730;5.356;2023-07-29T03:16:37;2.63;;;1.57;;
24617;SDS011;12762;51.730;5.356;2023-07-29T03:19:05;4.27;;;2.00;;
24617;SDS011;12762;51.730;5.356;2023-07-29T03:21:32;4.30;;;1.70;;
24617;SDS011;12762;51.730;5.356;2023-07-29T03:24:02;3.20;;;1.97;;
24617;SDS011;12762;51.730;5.356;2023-07-29T03:26:29;1.93;;;1.40;;
24617;SDS011;12762;51.730;5.356;2023-07-29T03:28:56;3.83;;;1.70;;
24617;SDS011;12762;51.730;5.356;2023-07-29T03:31:22;2.17;;;1.40;;
24617;SDS011;12762;51.730;5.356;2023-07-29T03:33:51;4.20;;;1.73;;
24617;SDS011;12762;51.730;5.356;2023-07-29T03:36:18;2.53;;;1.50;;
24617;SDS011;12762;51.730;5.356;2023-07-29T03:38:56;2.03;;;1.33;;
24617;SDS011;12762;51.730;5.356;2023-07-29T03:41:23;3.23;;;1.27;;
24617;SDS011;12762;51.730;5.356;2023-07-29T03:43:49;2.33;;;1.30;;
24617;SDS011;12762;51.730;5.356;2023-07-29T03:46:16;3.20;;;1.57;;
24617;SDS011;12762;51.730;5.356;2023-07-29T03:48:46;3.27;;;1.70;;
24617;SDS011;12762;51.730;5.356;2023-07-29T03:51:12;3.47;;;2.03;;
24617;SDS011;12762;51.730;5.356;2023-07-29T03:53:39;3.70;;;1.73;;
24617;SDS011;12762;51.730;5.356;2023-07-29T03:56:06;3.43;;;1.70;;
24617;SDS011;12762;51.730;5.356;2023-07-29T03:58:36;4.90;;;1.97;;
24617;SDS011;12762;51.730;5.356;2023-07-29T04:01:02;3.17;;;1.97;;
24617;SDS011;12762;51.730;5.356;2023-07-29T04:03:31;3.03;;;2.03;;
24617;SDS011;12762;51.730;5.356;2023-07-29T04:05:59;6.43;;;2.30;;
24617;SDS011;12762;51.730;5.356;2023-07-29T04:08:27;4.43;;;2.07;;
24617;SDS011;12762;51.730;5.356;2023-07-29T04:10:53;5.03;;;2.20;;
24617;SDS011;12762;51.730;5.356;2023-07-29T04:13:20;4.53;;;2.20;;
24617;SDS011;12762;51.730;5.356;2023-07-29T04:15:47;4.60;;;2.10;;
24617;SDS011;12762;51.730;5.356;2023-07-29T04:18:14;4.57;;;2.17;;
24617;SDS011;12762;51.730;5.356;2023-07-29T04:20:41;3.50;;;2.30;;
24617;SDS011;12762;51.730;5.356;2023-07-29T04:23:08;4.87;;;2.30;;
24617;SDS011;12762;51.730;5.356;2023-07-29T04:25:38;3.63;;;2.57;;
24617;SDS011;12762;51.730;5.356;2023-07-29T04:28:05;5.07;;;2.73;;
24617;SDS011;12762;51.730;5.356;2023-07-29T04:30:32;4.43;;;2.70;;
24617;SDS011;12762;51.730;5.356;2023-07-29T04:32:59;6.20;;;2.60;;
24617;SDS011;12762;51.730;5.356;2023-07-29T04:35:25;4.70;;;2.50;;
24617;SDS011;12762;51.730;5.356;2023-07-29T04:37:52;7.43;;;2.70;;
24617;SDS011;12762;51.730;5.356;2023-07-29T04:40:19;6.00;;;3.20;;
24617;SDS011;12762;51.730;5.356;2023-07-29T04:42:49;6.30;;;3.13;;
24617;SDS011;12762;51.730;5.356;2023-07-29T04:45:17;6.20;;;3.10;;
24617;SDS011;12762;51.730;5.356;2023-07-29T04:47:44;7.47;;;3.33;;
24617;SDS011;12762;51.730;5.356;2023-07-29T04:50:11;7.53;;;3.20;;
24617;SDS011;12762;51.730;5.356;2023-07-29T04:52:37;4.90;;;2.60;;
24617;SDS011;12762;51.730;5.356;2023-07-29T04:55:04;5.20;;;2.90;;
24617;SDS011;12762;51.730;5.356;2023-07-29T04:57:31;6.53;;;3.57;;
24617;SDS011;12762;51.730;5.356;2023-07-29T04:59:58;6.83;;;3.67;;
24617;SDS011;12762;51.730;5.356;2023-07-29T05:02:25;7.83;;;3.57;;
24617;SDS011;12762;51.730;5.356;2023-07-29T05:04:52;9.97;;;3.20;;
24617;SDS011;12762;51.730;5.356;2023-07-29T05:07:19;6.90;;;3.50;;
24617;SDS011;12762;51.730;5.356;2023-07-29T05:09:46;6.27;;;3.30;;
24617;SDS011;12762;51.730;5.356;2023-07-29T05:12:13;6.60;;;3.57;;
24617;SDS011;12762;51.730;5.356;2023-07-29T05:14:40;8.17;;;3.60;;
24617;SDS011;12762;51.730;5.356;2023-07-29T05:17:07;7.07;;;3.83;;
24617;SDS011;12762;51.730;5.356;2023-07-29T05:19:34;6.67;;;3.60;;
24617;SDS011;12762;51.730;5.356;2023-07-29T05:22:01;6.10;;;3.60;;
24617;SDS011;12762;51.730;5.356;2023-07-29T05:24:29;6.70;;;3.40;;
24617;SDS011;12762;51.730;5.356;2023-07-29T05:26:56;7.90;;;3.27;;
24617;SDS011;12762;51.730;5.356;2023-07-29T05:29:22;7.80;;;4.00;;
24617;SDS011;12762;51.730;5.356;2023-07-29T05:31:49;8.60;;;3.50;;
24617;SDS011;12762;51.730;5.356;2023-07-29T05:34:16;6.30;;;3.47;;
24617;SDS011;12762;51.730;5.356;2023-07-29T05:36:43;6.10;;;3.70;;
24617;SDS011;12762;51.730;5.356;2023-07-29T05:39:10;8.47;;;4.03;;
24617;SDS011;12762;51.730;5.356;2023-07-29T05:41:38;6.97;;;3.60;;
24617;SDS011;12762;51.730;5.356;2023-07-29T05:44:05;8.07;;;3.60;;
24617;SDS011;12762;51.730;5.356;2023-07-29T05:46:36;6.23;;;3.50;;
24617;SDS011;12762;51.730;5.356;2023-07-29T05:49:03;7.63;;;3.60;;
24617;SDS011;12762;51.730;5.356;2023-07-29T05:51:30;5.53;;;3.83;;
24617;SDS011;12762;51.730;5.356;2023-07-29T05:53:56;6.93;;;3.37;;
24617;SDS011;12762;51.730;5.356;2023-07-29T05:56:23;6.67;;;3.47;;
24617;SDS011;12762;51.730;5.356;2023-07-29T05:58:50;7.27;;;3.63;;
24617;SDS011;12762;51.730;5.356;2023-07-29T06:01:17;8.20;;;3.20;;
24617;SDS011;12762;51.730;5.356;2023-07-29T06:03:47;6.50;;;3.07;;
24617;SDS011;12762;51.730;5.356;2023-07-29T06:06:15;6.20;;;3.20;;
24617;SDS011;12762;51.730;5.356;2023-07-29T06:08:42;5.63;;;3.10;;
24617;SDS011;12762;51.730;5.356;2023-07-29T06:11:08;4.20;;;3.00;;
24617;SDS011;12762;51.730;5.356;2023-07-29T06:13:35;5.13;;;2.90;;
24617;SDS011;12762;51.730;5.356;2023-07-29T06:16:02;8.73;;;4.07;;
24617;SDS011;12762;51.730;5.356;2023-07-29T06:18:29;6.93;;;4.00;;
24617;SDS011;12762;51.730;5.356;2023-07-29T06:20:56;6.50;;;3.60;;
24617;SDS011;12762;51.730;5.356;2023-07-29T06:23:23;7.57;;;4.30;;
24617;SDS011;12762;51.730;5.356;2023-07-29T06:25:50;7.10;;;4.07;;
24617;SDS011;12762;51.730;5.356;2023-07-29T06:28:17;7.87;;;4.33;;
24617;SDS011;12762;51.730;5.356;2023-07-29T06:30:44;7.90;;;4.53;;
24617;SDS011;12762;51.730;5.356;2023-07-29T06:33:11;6.20;;;4.40;;
24617;SDS011;12762;51.730;5.356;2023-07-29T06:35:37;7.23;;;4.70;;
24617;SDS011;12762;51.730;5.356;2023-07-29T06:38:04;6.30;;;4.43;;
24617;SDS011;12762;51.730;5.356;2023-07-29T06:40:31;7.33;;;4.57;;
24617;SDS011;12762;51.730;5.356;2023-07-29T06:43:01;7.53;;;4.63;;
24617;SDS011;12762;51.730;5.356;2023-07-29T06:45:28;6.63;;;4.53;;
24617;SDS011;12762;51.730;5.356;2023-07-29T06:47:54;6.93;;;4.43;;
24617;SDS011;12762;51.730;5.356;2023-07-29T06:50:21;5.83;;;4.23;;
24617;SDS011;12762;51.730;5.356;2023-07-29T06:52:48;6.53;;;3.70;;
24617;SDS011;12762;51.730;5.356;2023-07-29T06:55:17;7.03;;;3.83;;
24617;SDS011;12762;51.730;5.356;2023-07-29T06:57:44;9.87;;;3.57;;
24617;SDS011;12762;51.730;5.356;2023-07-29T07:00:14;7.17;;;3.43;;
24617;SDS011;12762;51.730;5.356;2023-07-29T07:02:41;7.27;;;3.50;;
24617;SDS011;12762;51.730;5.356;2023-07-29T07:05:08;5.13;;;3.43;;
24617;SDS011;12762;51.730;5.356;2023-07-29T07:07:35;7.77;;;3.00;;
24617;SDS011;12762;51.730;5.356;2023-07-29T07:10:02;5.17;;;3.03;;
24617;SDS011;12762;51.730;5.356;2023-07-29T07:12:32;4.53;;;2.90;;
24617;SDS011;12762;51.730;5.356;2023-07-29T07:14:59;4.63;;;2.63;;
24617;SDS011;12762;51.730;5.356;2023-07-29T07:17:26;5.30;;;2.97;;
24617;SDS011;12762;51.730;5.356;2023-07-29T07:19:53;3.43;;;2.30;;
24617;SDS011;12762;51.730;5.356;2023-07-29T07:22:20;4.30;;;2.70;;
24617;SDS011;12762;51.730;5.356;2023-07-29T07:24:47;6.20;;;2.63;;
24617;SDS011;12762;51.730;5.356;2023-07-29T07:27:13;4.30;;;2.20;;
24617;SDS011;12762;51.730;5.356;2023-07-29T07:29:44;3.73;;;2.50;;
24617;SDS011;12762;51.730;5.356;2023-07-29T07:32:12;5.27;;;2.63;;
24617;SDS011;12762;51.730;5.356;2023-07-29T07:34:39;4.77;;;2.43;;
24617;SDS011;12762;51.730;5.356;2023-07-29T07:37:06;3.40;;;1.93;;
24617;SDS011;12762;51.730;5.356;2023-07-29T07:39:33;2.97;;;1.70;;
24617;SDS011;12762;51.730;5.356;2023-07-29T07:41:59;4.13;;;2.03;;
24617;SDS011;12762;51.730;5.356;2023-07-29T07:44:26;3.57;;;1.80;;
24617;SDS011;12762;51.730;5.356;2023-07-29T07:46:53;2.90;;;1.80;;
24617;SDS011;12762;51.730;5.356;2023-07-29T07:49:20;4.17;;;1.80;;
24617;SDS011;12762;51.730;5.356;2023-07-29T07:51:51;4.13;;;1.90;;
24617;SDS011;12762;51.730;5.356;2023-07-29T07:54:17;3.70;;;1.80;;
24617;SDS011;12762;51.730;5.356;2023-07-29T07:56:44;3.30;;;1.73;;
24617;SDS011;12762;51.730;5.356;2023-07-29T07:59:11;4.87;;;1.83;;
24617;SDS011;12762;51.730;5.356;2023-07-29T08:01:41;3.27;;;1.60;;
24617;SDS011;12762;51.730;5.356;2023-07-29T08:04:08;4.37;;;1.53;;
24617;SDS011;12762;51.730;5.356;2023-07-29T08:06:35;3.63;;;1.70;;
24617;SDS011;12762;51.730;5.356;2023-07-29T08:09:02;3.00;;;1.60;;
24617;SDS011;12762;51.730;5.356;2023-07-29T08:11:29;5.13;;;1.60;;
24617;SDS011;12762;51.730;5.356;2023-07-29T08:13:57;3.63;;;1.77;;
24617;SDS011;12762;51.730;5.356;2023-07-29T08:16:25;4.50;;;2.47;;
24617;SDS011;12762;51.730;5.356;2023-07-29T08:18:54;3.07;;;2.30;;
24617;SDS011;12762;51.730;5.356;2023-07-29T08:21:21;3.63;;;2.30;;
24617;SDS011;12762;51.730;5.356;2023-07-29T08:23:48;4.30;;;2.50;;
24617;SDS011;12762;51.730;5.356;2023-07-29T08:26:17;5.33;;;2.60;;
24617;SDS011;12762;51.730;5.356;2023-07-29T08:28:44;4.63;;;2.10;;
24617;SDS011;12762;51.730;5.356;2023-07-29T08:31:11;3.47;;;1.73;;
24617;SDS011;12762;51.730;5.356;2023-07-29T08:33:38;4.57;;;2.47;;
24617;SDS011;12762;51.730;5.356;2023-07-29T08:36:05;4.57;;;2.30;;
24617;SDS011;12762;51.730;5.356;2023-07-29T08:38:32;4.20;;;2.30;;
24617;SDS011;12762;51.730;5.356;2023-07-29T08:43:44;2.90;;;1.93;;
24617;SDS011;12762;51.730;5.356;2023-07-29T08:46:45;3.87;;;2.17;;
24617;SDS011;12762;51.730;5.356;2023-07-29T08:49:18;4.53;;;2.60;;
24617;SDS011;12762;51.730;5.356;2023-07-29T08:51:48;4.23;;;2.10;;
24617;SDS011;12762;51.730;5.356;2023-07-29T08:54:18;3.73;;;2.27;;
24617;SDS011;12762;51.730;5.356;2023-07-29T08:56:48;4.70;;;2.67;;
24617;SDS011;12762;51.730;5.356;2023-07-29T08:59:15;4.33;;;2.20;;
24617;SDS011;12762;51.730;5.356;2023-07-29T09:01:43;3.70;;;2.20;;
24617;SDS011;12762;51.730;5.356;2023-07-29T09:04:10;2.80;;;1.67;;
24617;SDS011;12762;51.730;5.356;2023-07-29T09:06:37;3.88;;;2.10;;
24617;SDS011;12762;51.730;5.356;2023-07-29T09:09:06;4.17;;;2.00;;
24617;SDS011;12762;51.730;5.356;2023-07-29T09:11:34;2.73;;;2.00;;
24617;SDS011;12762;51.730;5.356;2023-07-29T09:14:01;4.38;;;1.63;;
24617;SDS011;12762;51.730;5.356;2023-07-29T09:16:30;2.83;;;1.80;;
24617;SDS011;12762;51.730;5.356;2023-07-29T09:19:00;2.53;;;2.03;;
24617;SDS011;12762;51.730;5.356;2023-07-29T09:21:29;2.70;;;1.48;;
24617;SDS011;12762;51.730;5.356;2023-07-29T09:23:57;2.30;;;1.40;;
24617;SDS011;12762;51.730;5.356;2023-07-29T09:26:30;3.63;;;1.70;;
24617;SDS011;12762;51.730;5.356;2023-07-29T09:28:58;4.18;;;1.20;;
24617;SDS011;12762;51.730;5.356;2023-07-29T09:31:26;2.88;;;1.45;;
24617;SDS011;12762;51.730;5.356;2023-07-29T09:36:29;3.15;;;1.40;;
24617;SDS011;12762;51.730;5.356;2023-07-29T09:38:58;3.67;;;1.38;;
24617;SDS011;12762;51.730;5.356;2023-07-29T09:41:26;2.60;;;1.10;;
24617;SDS011;12762;51.730;5.356;2023-07-29T09:44:00;1.75;;;1.20;;
24617;SDS011;12762;51.730;5.356;2023-07-29T09:46:32;2.63;;;1.20;;
24617;SDS011;12762;51.730;5.356;2023-07-29T09:49:05;2.13;;;1.42;;
24617;SDS011;12762;51.730;5.356;2023-07-29T09:51:39;1.90;;;0.90;;
24617;SDS011;12762;51.730;5.356;2023-07-29T09:54:06;1.60;;;1.15;;
24617;SDS011;12762;51.730;5.356;2023-07-29T09:56:33;1.60;;;1.05;;
24617;SDS011;12762;51.730;5.356;2023-07-29T09:59:07;1.38;;;1.05;;
24617;SDS011;12762;51.730;5.356;2023-07-29T10:01:34;1.00;;;0.90;;
24617;SDS011;12762;51.730;5.356;2023-07-29T10:04:05;2.50;;;1.20;;
24617;SDS011;12762;51.730;5.356;2023-07-29T10:06:36;1.70;;;1.08;;
24617;SDS011;12762;51.730;5.356;2023-07-29T10:09:04;2.22;;;0.88;;
24617;SDS011;12762;51.730;5.356;2023-07-29T10:11:35;2.83;;;1.15;;
24617;SDS011;12762;51.730;5.356;2023-07-29T10:14:04;1.25;;;1.10;;
24617;SDS011;12762;51.730;5.356;2023-07-29T10:16:35;1.85;;;0.90;;
24617;SDS011;12762;51.730;5.356;2023-07-29T10:19:04;2.85;;;1.13;;
24617;SDS011;12762;51.730;5.356;2023-07-29T10:21:32;1.60;;;1.00;;
24617;SDS011;12762;51.730;5.356;2023-07-29T10:24:02;1.92;;;1.00;;
24617;SDS011;12762;51.730;5.356;2023-07-29T10:26:37;1.45;;;1.00;;
24617;SDS011;12762;51.730;5.356;2023-07-29T10:29:10;1.67;;;1.00;;
24617;SDS011;12762;51.730;5.356;2023-07-29T10:31:39;2.55;;;1.00;;
24617;SDS011;12762;51.730;5.356;2023-07-29T10:34:12;0.88;;;0.68;;
24617;SDS011;12762;51.730;5.356;2023-07-29T10:36:40;1.73;;;0.85;;
24617;SDS011;12762;51.730;5.356;2023-07-29T10:39:07;1.17;;;0.93;;
24617;SDS011;12762;51.730;5.356;2023-07-29T10:47:15;1.83;;;1.13;;
24617;SDS011;12762;51.730;5.356;2023-07-29T10:49:50;3.60;;;1.25;;
24617;SDS011;12762;51.730;5.356;2023-07-29T10:55:28;1.52;;;0.90;;
24617;SDS011;12762;51.730;5.356;2023-07-29T10:58:04;1.65;;;0.90;;
24617;SDS011;12762;51.730;5.356;2023-07-29T11:00:33;2.67;;;1.30;;
24617;SDS011;12762;51.730;5.356;2023-07-29T11:03:01;1.95;;;1.35;;
24617;SDS011;12762;51.730;5.356;2023-07-29T11:05:44;2.47;;;1.25;;
24617;SDS011;12762;51.730;5.356;2023-07-29T11:11:04;4.32;;;1.80;;
24617;SDS011;12762;51.730;5.356;2023-07-29T11:13:33;4.78;;;1.70;;
24617;SDS011;12762;51.730;5.356;2023-07-29T11:16:01;2.17;;;1.08;;
24617;SDS011;12762;51.730;5.356;2023-07-29T11:18:32;1.90;;;0.90;;
24617;SDS011;12762;51.730;5.356;2023-07-29T11:21:01;3.22;;;1.00;;
24617;SDS011;12762;51.730;5.356;2023-07-29T11:23:30;1.73;;;0.65;;
24617;SDS011;12762;51.730;5.356;2023-07-29T11:26:02;1.50;;;0.88;;
24617;SDS011;12762;51.730;5.356;2023-07-29T11:28:30;1.38;;;0.70;;
24617;SDS011;12762;51.730;5.356;2023-07-29T11:31:04;1.93;;;1.00;;
24617;SDS011;12762;51.730;5.356;2023-07-29T11:33:30;3.08;;;1.40;;
24617;SDS011;12762;51.730;5.356;2023-07-29T11:35:57;3.95;;;1.42;;
24617;SDS011;12762;51.730;5.356;2023-07-29T11:38:24;3.70;;;1.40;;
24617;SDS011;12762;51.730;5.356;2023-07-29T11:40:55;4.17;;;1.33;;
24617;SDS011;12762;51.730;5.356;2023-07-29T11:43:26;4.83;;;1.50;;
24617;SDS011;12762;51.730;5.356;2023-07-29T11:45:53;2.67;;;1.47;;
24617;SDS011;12762;51.730;5.356;2023-07-29T11:48:33;3.47;;;1.53;;
24617;SDS011;12762;51.730;5.356;2023-07-29T11:51:00;3.00;;;1.67;;
24617;SDS011;12762;51.730;5.356;2023-07-29T11:53:28;3.03;;;1.87;;
24617;SDS011;12762;51.730;5.356;2023-07-29T11:55:57;2.67;;;1.87;;
24617;SDS011;12762;51.730;5.356;2023-07-29T11:58:24;4.90;;;2.43;;
24617;SDS011;12762;51.730;5.356;2023-07-29T12:00:52;4.73;;;2.53;;
24617;SDS011;12762;51.730;5.356;2023-07-29T12:03:18;6.13;;;3.23;;
24617;SDS011;12762;51.730;5.356;2023-07-29T12:05:47;4.97;;;2.80;;
24617;SDS011;12762;51.730;5.356;2023-07-29T12:08:15;4.23;;;3.17;;
24617;SDS011;12762;51.730;5.356;2023-07-29T12:10:42;5.53;;;3.53;;
24617;SDS011;12762;51.730;5.356;2023-07-29T12:13:09;4.70;;;3.27;;
24617;SDS011;12762;51.730;5.356;2023-07-29T12:15:37;6.63;;;4.07;;
24617;SDS011;12762;51.730;5.356;2023-07-29T12:18:06;4.67;;;3.80;;
24617;SDS011;12762;51.730;5.356;2023-07-29T12:20:35;5.33;;;3.90;;
24617;SDS011;12762;51.730;5.356;2023-07-29T12:23:03;5.43;;;3.97;;
24617;SDS011;12762;51.730;5.356;2023-07-29T12:25:32;5.87;;;4.10;;
24617;SDS011;12762;51.730;5.356;2023-07-29T12:28:03;5.30;;;3.70;;
24617;SDS011;12762;51.730;5.356;2023-07-29T12:30:33;5.63;;;4.33;;
24617;SDS011;12762;51.730;5.356;2023-07-29T12:33:01;4.90;;;4.33;;
24617;SDS011;12762;51.730;5.356;2023-07-29T12:35:37;7.13;;;4.60;;
24617;SDS011;12762;51.730;5.356;2023-07-29T12:38:04;6.70;;;4.30;;
24617;SDS011;12762;51.730;5.356;2023-07-29T12:40:31;5.47;;;4.50;;
24617;SDS011;12762;51.730;5.356;2023-07-29T12:42:58;5.73;;;4.70;;
24617;SDS011;12762;51.730;5.356;2023-07-29T12:45:26;5.83;;;4.90;;
24617;SDS011;12762;51.730;5.356;2023-07-29T12:47:53;7.00;;;5.80;;
24617;SDS011;12762;51.730;5.356;2023-07-29T12:50:21;4.70;;;3.33;;
24617;SDS011;12762;51.730;5.356;2023-07-29T12:52:47;3.23;;;1.57;;
24617;SDS011;12762;51.730;5.356;2023-07-29T12:55:14;1.97;;;1.30;;
24617;SDS011;12762;51.730;5.356;2023-07-29T12:57:45;1.63;;;1.50;;
24617;SDS011;12762;51.730;5.356;2023-07-29T13:00:12;1.73;;;1.43;;
24617;SDS011;12762;51.730;5.356;2023-07-29T13:02:39;1.70;;;1.33;;
24617;SDS011;12762;51.730;5.356;2023-07-29T13:05:07;2.63;;;1.53;;
24617;SDS011;12762;51.730;5.356;2023-07-29T13:07:42;3.10;;;1.67;;
24617;SDS011;12762;51.730;5.356;2023-07-29T13:10:09;2.13;;;1.53;;
24617;SDS011;12762;51.730;5.356;2023-07-29T13:12:37;1.83;;;1.40;;
24617;SDS011;12762;51.730;5.356;2023-07-29T13:15:06;3.00;;;1.10;;
24617;SDS011;12762;51.730;5.356;2023-07-29T13:17:36;1.70;;;0.90;;
24617;SDS011;12762;51.730;5.356;2023-07-29T13:20:04;1.40;;;1.20;;
24617;SDS011;12762;51.730;5.356;2023-07-29T13:22:32;1.80;;;1.20;;
24617;SDS011;12762;51.730;5.356;2023-07-29T13:24:59;1.53;;;1.10;;
24617;SDS011;12762;51.730;5.356;2023-07-29T13:27:25;2.70;;;1.30;;
24617;SDS011;12762;51.730;5.356;2023-07-29T13:29:53;1.50;;;0.93;;
24617;SDS011;12762;51.730;5.356;2023-07-29T13:32:19;1.63;;;1.17;;
24617;SDS011;12762;51.730;5.356;2023-07-29T13:34:46;3.93;;;1.60;;
24617;SDS011;12762;51.730;5.356;2023-07-29T13:37:13;1.93;;;1.30;;
24617;SDS011;12762;51.730;5.356;2023-07-29T13:39:40;2.63;;;1.43;;
24617;SDS011;12762;51.730;5.356;2023-07-29T13:42:07;2.10;;;1.50;;
24617;SDS011;12762;51.730;5.356;2023-07-29T13:44:34;3.13;;;1.30;;
24617;SDS011;12762;51.730;5.356;2023-07-29T13:47:00;2.00;;;1.33;;
24617;SDS011;12762;51.730;5.356;2023-07-29T13:49:30;2.03;;;1.35;;
24617;SDS011;12762;51.730;5.356;2023-07-29T13:51:59;1.83;;;1.50;;
24617;SDS011;12762;51.730;5.356;2023-07-29T13:54:26;3.45;;;1.45;;
24617;SDS011;12762;51.730;5.356;2023-07-29T13:56:56;3.03;;;1.38;;
24617;SDS011;12762;51.730;5.356;2023-07-29T13:59:26;1.55;;;1.30;;
24617;SDS011;12762;51.730;5.356;2023-07-29T14:01:52;3.83;;;1.50;;
24617;SDS011;12762;51.730;5.356;2023-07-29T14:04:20;2.63;;;1.23;;
24617;SDS011;12762;51.730;5.356;2023-07-29T14:06:46;1.42;;;1.27;;
24617;SDS011;12762;51.730;5.356;2023-07-29T14:09:21;1.90;;;1.50;;
24617;SDS011;12762;51.730;5.356;2023-07-29T14:11:48;1.90;;;1.10;;
24617;SDS011;12762;51.730;5.356;2023-07-29T14:14:15;2.53;;;1.25;;
24617;SDS011;12762;51.730;5.356;2023-07-29T14:16:41;2.88;;;1.30;;
24617;SDS011;12762;51.730;5.356;2023-07-29T14:19:08;2.00;;;1.40;;
24617;SDS011;12762;51.730;5.356;2023-07-29T14:21:35;1.88;;;1.52;;
24617;SDS011;12762;51.730;5.356;2023-07-29T14:24:02;1.90;;;1.48;;
24617;SDS011;12762;51.730;5.356;2023-07-29T14:26:29;2.30;;;1.40;;
24617;SDS011;12762;51.730;5.356;2023-07-29T14:28:56;1.83;;;1.58;;
24617;SDS011;12762;51.730;5.356;2023-07-29T14:31:22;2.97;;;1.73;;
24617;SDS011;12762;51.730;5.356;2023-07-29T14:33:49;1.77;;;1.50;;
24617;SDS011;12762;51.730;5.356;2023-07-29T14:36:19;1.70;;;1.42;;
24617;SDS011;12762;51.730;5.356;2023-07-29T14:38:46;1.60;;;1.38;;
24617;SDS011;12762;51.730;5.356;2023-07-29T14:41:13;1.80;;;1.25;;
24617;SDS011;12762;51.730;5.356;2023-07-29T14:43:40;1.65;;;1.08;;
24617;SDS011;12762;51.730;5.356;2023-07-29T14:46:06;2.38;;;1.38;;
24617;SDS011;12762;51.730;5.356;2023-07-29T14:48:33;1.52;;;1.30;;
24617;SDS011;12762;51.730;5.356;2023-07-29T14:51:00;1.75;;;1.40;;
24617;SDS011;12762;51.730;5.356;2023-07-29T14:53:27;3.35;;;1.40;;
24617;SDS011;12762;51.730;5.356;2023-07-29T14:55:54;5.70;;;1.60;;
24617;SDS011;12762;51.730;5.356;2023-07-29T14:58:21;1.88;;;1.45;;
24617;SDS011;12762;51.730;5.356;2023-07-29T15:00:47;1.60;;;1.40;;
24617;SDS011;12762;51.730;5.356;2023-07-29T15:03:15;2.75;;;1.55;;
24617;SDS011;12762;51.730;5.356;2023-07-29T15:05:42;2.42;;;1.50;;
24617;SDS011;12762;51.730;5.356;2023-07-29T15:08:09;2.67;;;1.70;;
24617;SDS011;12762;51.730;5.356;2023-07-29T15:10:36;2.20;;;1.73;;
24617;SDS011;12762;51.730;5.356;2023-07-29T15:13:03;2.08;;;1.65;;
24617;SDS011;12762;51.730;5.356;2023-07-29T15:15:29;2.72;;;1.73;;
24617;SDS011;12762;51.730;5.356;2023-07-29T15:17:56;2.92;;;1.77;;